createdAt,value
2022-11-28T00:00:53.100Z,98442.84
2022-11-28T00:03:22.743Z,98432.47
2022-11-28T00:05:49.507Z,98435.94
2022-11-28T00:08:16.123Z,98435.03
2022-11-28T00:10:46.353Z,98424.59
2022-11-28T00:13:15.676Z,98427.16
2022-11-28T00:15:58.351Z,98422.00
2022-11-28T00:18:47.588Z,98420.97
2022-11-28T00:21:30.045Z,98411.31
2022-11-28T00:24:02.501Z,98398.53
2022-11-28T00:26:45.861Z,98392.41
2022-11-28T00:29:15.320Z,98368.28
2022-11-28T00:31:53.721Z,98376.22
2022-11-28T00:34:26.047Z,98384.91
2022-11-28T00:37:39.407Z,98386.47
2022-11-28T00:40:09.614Z,98375.09
2022-11-28T00:42:42.476Z,98370.78
2022-11-28T00:45:09.416Z,98375.91
2022-11-28T00:47:36.145Z,98376.78
2022-11-28T00:50:03.120Z,98381.97
2022-11-28T00:52:32.796Z,98377.00
2022-11-28T00:54:59.564Z,98374.53
2022-11-28T00:57:28.341Z,98369.28
2022-11-28T00:59:56.829Z,98371.94
2022-11-28T01:02:43.591Z,98377.44
2022-11-28T01:05:19.050Z,98376.66
2022-11-28T01:07:45.958Z,98378.75
2022-11-28T01:11:34.029Z,98371.81
2022-11-28T01:14:04.400Z,98365.72
2022-11-28T01:16:31.233Z,98373.53
2022-11-28T01:19:04.540Z,98366.59
2022-11-28T01:21:39.854Z,98366.59
2022-11-28T01:24:08.756Z,98366.69
2022-11-28T01:26:41.837Z,98373.72
2022-11-28T01:29:11.857Z,98368.44
2022-11-28T01:31:41.291Z,98371.25
2022-11-28T01:34:55.153Z,98365.13
2022-11-28T01:37:24.514Z,98354.59
2022-11-28T01:39:51.239Z,98349.50
2022-11-28T01:42:19.868Z,98353.94
2022-11-28T01:44:49.216Z,98357.41
2022-11-28T01:47:22.859Z,98352.47
2022-11-28T01:49:54.062Z,98353.31
2022-11-28T01:52:26.936Z,98341.09
2022-11-28T01:55:00.170Z,98337.16
2022-11-28T01:57:28.102Z,98332.72
2022-11-28T02:00:15.965Z,98324.94
2022-11-28T02:02:47.995Z,98327.59
2022-11-28T02:05:24.293Z,98326.75
2022-11-28T02:07:51.829Z,98322.41
2022-11-28T02:10:25.528Z,98306.78
2022-11-28T02:13:24.861Z,98306.06
2022-11-28T02:19:27.590Z,98312.13
2022-11-28T02:22:25.635Z,98294.75
2022-11-28T02:25:09.738Z,98284.38
2022-11-28T02:27:41.981Z,98278.34
2022-11-28T02:30:19.550Z,98280.91
2022-11-28T02:33:34.466Z,98277.31
2022-11-28T02:36:52.570Z,98276.53
2022-11-28T02:39:32.630Z,98281.72
2022-11-28T02:42:39.940Z,98284.59
2022-11-28T02:46:03.152Z,98286.34
2022-11-28T02:48:48.108Z,98290.44
2022-11-28T02:51:28.530Z,98295.53
2022-11-28T02:53:59.584Z,98291.97
2022-11-28T02:56:26.437Z,98302.50
2022-11-28T02:59:02.240Z,98288.50
2022-11-28T03:01:57.581Z,98295.47
2022-11-28T03:04:53.989Z,98289.41
2022-11-28T03:08:03.931Z,98285.97
2022-11-28T03:11:24.813Z,98275.63
2022-11-28T03:14:54.695Z,98273.97
2022-11-28T03:17:55.387Z,98265.38
2022-11-28T03:20:47.467Z,98272.38
2022-11-28T03:26:28.002Z,98276.06
2022-11-28T03:29:14.482Z,98286.47
2022-11-28T03:32:06.554Z,98273.50
2022-11-28T03:34:40.603Z,98280.34
2022-11-28T03:37:18.080Z,98285.50
2022-11-28T03:40:05.500Z,98287.13
2022-11-28T03:42:55.021Z,98282.00
2022-11-28T03:45:52.780Z,98278.47
2022-11-28T03:48:39.027Z,98276.72
2022-11-28T03:51:10.944Z,98277.69
2022-11-28T03:53:51.190Z,98282.81
2022-11-28T03:56:24.228Z,98283.59
2022-11-28T03:59:02.733Z,98276.56
2022-11-28T04:01:36.983Z,98284.34
2022-11-28T04:04:35.726Z,98276.53
2022-11-28T04:07:14.608Z,98266.06
2022-11-28T04:10:05.709Z,98261.88
2022-11-28T04:19:03.057Z,98259.88
2022-11-28T04:21:41.597Z,98253.84
2022-11-28T04:24:18.128Z,98250.38
2022-11-28T04:27:02.932Z,98243.44
2022-11-28T04:29:35.979Z,98241.63
2022-11-28T04:32:07.696Z,98242.53
2022-11-28T04:35:07.198Z,98240.75
2022-11-28T04:37:41.966Z,98244.22
2022-11-28T04:40:12.276Z,98250.97
2022-11-28T04:42:53.839Z,98243.91
2022-11-28T04:45:57.387Z,98244.69
2022-11-28T04:48:51.603Z,98248.06
2022-11-28T04:52:01.019Z,98245.41
2022-11-28T04:54:52.705Z,98248.84
2022-11-28T04:57:21.325Z,98234.22
2022-11-28T04:59:48.992Z,98236.00
2022-11-28T05:02:17.674Z,98239.59
2022-11-28T05:04:45.335Z,98239.53
2022-11-28T05:07:18.276Z,98236.91
2022-11-28T05:09:48.814Z,98239.53
2022-11-28T05:12:40.045Z,98239.41
2022-11-28T05:15:21.048Z,98233.16
2022-11-28T05:17:58.004Z,98231.34
2022-11-28T05:20:29.339Z,98231.22
2022-11-28T05:22:56.178Z,98227.69
2022-11-28T05:25:22.961Z,98234.44
2022-11-28T05:27:52.045Z,98229.25
2022-11-28T05:30:28.930Z,98225.81
2022-11-28T05:33:08.695Z,98217.13
2022-11-28T05:36:13.121Z,98232.66
2022-11-28T05:38:40.440Z,98232.53
2022-11-28T05:41:23.366Z,98241.28
2022-11-28T05:44:01.937Z,98241.47
2022-11-28T05:46:44.827Z,98243.16
2022-11-28T05:49:11.573Z,98242.16
2022-11-28T05:51:44.272Z,98248.97
2022-11-28T05:54:10.867Z,98255.03
2022-11-28T05:56:46.778Z,98248.97
2022-11-28T05:59:23.071Z,98245.44
2022-11-28T06:05:41.719Z,98244.44
2022-11-28T06:08:07.049Z,98231.34
2022-11-28T06:11:00.192Z,98228.88
2022-11-28T06:16:29.585Z,98232.19
2022-11-28T06:18:59.472Z,98233.78
2022-11-28T06:21:34.397Z,98241.56
2022-11-28T06:24:03.777Z,98243.97
2022-11-28T06:26:33.068Z,98246.44
2022-11-28T06:32:52.492Z,98257.00
2022-11-28T06:35:19.089Z,98254.50
2022-11-28T06:37:56.640Z,98263.22
2022-11-28T06:43:15.586Z,98270.06
2022-11-28T06:45:51.197Z,98257.94
2022-11-28T06:48:18.076Z,98260.38
2022-11-28T06:50:44.851Z,98263.09
2022-11-28T06:53:14.545Z,98266.63
2022-11-28T06:55:50.967Z,98265.63
2022-11-28T06:58:17.833Z,98267.25
2022-11-28T07:00:55.256Z,98265.50
2022-11-28T07:03:21.987Z,98254.16
2022-11-28T07:05:54.822Z,98254.09
2022-11-28T07:08:53.018Z,98267.06
2022-11-28T07:11:38.938Z,98260.69
2022-11-28T07:14:05.901Z,98264.91
2022-11-28T07:16:47.507Z,98273.50
2022-11-28T07:22:04.433Z,98269.84
2022-11-28T07:24:57.727Z,98270.72
2022-11-28T07:27:36.432Z,98278.44
2022-11-28T07:30:03.177Z,98270.41
2022-11-28T07:32:38.549Z,98269.47
2022-11-28T07:38:18.206Z,98264.78
2022-11-28T07:40:49.792Z,98275.00
2022-11-28T07:43:37.127Z,98266.38
2022-11-28T07:46:26.579Z,98263.63
2022-11-28T07:48:53.889Z,98270.38
2022-11-28T07:51:43.876Z,98266.66
2022-11-28T07:54:13.712Z,98271.81
2022-11-28T07:59:35.267Z,98275.03
2022-11-28T08:02:01.991Z,98275.03
2022-11-28T08:04:47.081Z,98269.75
2022-11-28T08:07:16.255Z,98277.50
2022-11-28T08:09:47.068Z,98269.63
2022-11-28T08:12:26.165Z,98269.47
2022-11-28T08:15:15.054Z,98274.56
2022-11-28T08:18:03.850Z,98271.75
2022-11-28T08:20:33.535Z,98263.72
2022-11-28T08:23:06.122Z,98267.00
2022-11-28T08:25:36.801Z,98268.56
2022-11-28T08:28:14.600Z,98272.72
2022-11-28T08:30:47.271Z,98277.03
2022-11-28T08:33:19.702Z,98275.13
2022-11-28T08:35:46.253Z,98274.25
2022-11-28T08:40:05.227Z,98267.16
2022-11-28T08:41:57.721Z,98272.13
2022-11-28T08:44:33.542Z,98262.69
2022-11-28T08:47:23.051Z,98263.47
2022-11-28T08:49:49.640Z,98272.00
2022-11-28T08:52:33.200Z,98267.47
2022-11-28T08:55:06.111Z,98268.94
2022-11-28T08:57:38.500Z,98265.34
2022-11-28T09:02:58.984Z,98263.59
2022-11-28T09:05:25.760Z,98261.16
2022-11-28T09:08:00.028Z,98266.88
2022-11-28T09:10:29.761Z,98266.53
2022-11-28T09:12:56.361Z,98276.16
2022-11-28T09:15:58.510Z,98277.84
2022-11-28T09:18:56.840Z,98275.16
2022-11-28T09:21:26.832Z,98277.69
2022-11-28T09:23:56.236Z,98281.91
2022-11-28T09:26:35.284Z,98280.91
2022-11-28T09:29:13.802Z,98274.00
2022-11-28T09:32:03.994Z,98274.53
2022-11-28T09:34:40.696Z,98277.69
2022-11-28T09:37:08.405Z,98272.38
2022-11-28T09:40:04.819Z,98277.38
2022-11-28T09:42:54.521Z,98280.75
2022-11-28T09:45:47.304Z,98286.66
2022-11-28T09:49:13.218Z,98293.41
2022-11-28T09:51:58.649Z,98288.56
2022-11-28T09:55:26.268Z,98288.09
2022-11-28T10:01:11.135Z,98283.41
2022-11-28T10:04:03.132Z,98274.31
2022-11-28T10:06:47.743Z,98281.06
2022-11-28T10:09:44.838Z,98280.16
2022-11-28T10:12:46.817Z,98278.38
2022-11-28T10:16:00.337Z,98277.28
2022-11-28T10:18:58.922Z,98271.81
2022-11-28T10:21:57.928Z,98273.13
2022-11-28T10:24:57.598Z,98269.16
2022-11-28T10:27:47.017Z,98270.44
2022-11-28T10:31:06.434Z,98272.72
2022-11-28T10:33:48.965Z,98272.41
2022-11-28T10:37:06.240Z,98267.69
2022-11-28T10:39:44.789Z,98262.09
2022-11-28T10:45:55.985Z,98266.06
2022-11-28T10:49:36.212Z,98266.81
2022-11-28T10:52:51.445Z,98269.16
2022-11-28T10:55:55.584Z,98261.16
2022-11-28T10:59:03.359Z,98264.84
2022-11-28T11:01:53.503Z,98265.97
2022-11-28T11:04:53.383Z,98267.66
2022-11-28T11:10:41.002Z,98261.38
2022-11-28T11:13:41.084Z,98260.38
2022-11-28T11:16:19.413Z,98263.81
2022-11-28T11:19:34.617Z,98262.06
2022-11-28T11:22:05.288Z,98262.81
2022-11-28T11:25:05.439Z,98257.69
2022-11-28T11:27:40.292Z,98264.59
2022-11-28T11:30:48.722Z,98260.13
2022-11-28T11:33:19.049Z,98254.13
2022-11-28T11:35:55.348Z,98247.78
2022-11-28T11:38:22.990Z,98253.69
2022-11-28T11:40:50.907Z,98245.72
2022-11-28T11:43:39.144Z,98246.47
2022-11-28T11:46:24.545Z,98240.91
2022-11-28T11:49:32.629Z,98242.31
2022-11-28T11:52:34.815Z,98238.09
2022-11-28T11:59:02.867Z,98241.28
2022-11-28T12:02:02.077Z,98238.41
2022-11-28T12:04:49.971Z,98241.03
2022-11-28T12:07:46.121Z,98239.25
2022-11-28T12:10:25.007Z,98237.47
2022-11-28T12:12:55.136Z,98234.09
2022-11-28T12:15:34.089Z,98241.97
2022-11-28T12:22:31.178Z,98227.03
2022-11-28T12:25:29.643Z,98233.06
2022-11-28T12:28:27.952Z,98224.91
2022-11-28T12:31:37.118Z,98222.03
2022-11-28T12:34:31.337Z,98220.91
2022-11-28T12:37:54.746Z,98215.66
2022-11-28T12:40:56.775Z,98213.81
2022-11-28T12:46:51.250Z,98213.91
2022-11-28T12:50:01.772Z,98200.72
2022-11-28T12:52:31.690Z,98202.31
2022-11-28T12:56:08.558Z,98199.59
2022-11-28T12:59:06.146Z,98201.09
2022-11-28T13:01:53.983Z,98207.09
2022-11-28T13:04:50.300Z,98207.00
2022-11-28T13:07:58.100Z,98206.81
2022-11-28T13:11:02.534Z,98205.81
2022-11-28T13:13:42.353Z,98204.88
2022-11-28T13:16:31.793Z,98202.25
2022-11-28T13:19:23.308Z,98202.06
2022-11-28T13:22:06.291Z,98203.00
2022-11-28T13:25:04.809Z,98189.78
2022-11-28T13:27:51.506Z,98200.19
2022-11-28T13:30:40.657Z,98185.41
2022-11-28T13:33:47.649Z,98202.88
2022-11-28T13:39:40.164Z,98195.78
2022-11-28T13:43:07.038Z,98202.72
2022-11-28T13:46:02.386Z,98200.84
2022-11-28T13:49:13.942Z,98197.50
2022-11-28T13:52:02.746Z,98197.50
2022-11-28T13:54:36.127Z,98197.66
2022-11-28T13:57:19.337Z,98192.59
2022-11-28T14:00:10.563Z,98198.78
2022-11-28T14:02:47.057Z,98194.47
2022-11-28T14:05:30.544Z,98198.97
2022-11-28T14:08:12.585Z,98199.78
2022-11-28T14:11:28.301Z,98201.84
2022-11-28T14:14:16.123Z,98200.91
2022-11-28T14:17:03.724Z,98210.56
2022-11-28T14:20:40.824Z,98209.97
2022-11-28T14:23:30.887Z,98207.28
2022-11-28T14:26:01.767Z,98202.97
2022-11-28T14:28:44.995Z,98208.22
2022-11-28T14:31:39.713Z,98216.06
2022-11-28T14:34:50.044Z,98212.69
2022-11-28T14:37:27.654Z,98220.56
2022-11-28T14:40:01.060Z,98221.50
2022-11-28T14:46:34.162Z,98228.59
2022-11-28T14:49:05.132Z,98229.63
2022-11-28T14:53:03.615Z,98233.19
2022-11-28T14:55:30.595Z,98234.28
2022-11-28T14:58:28.465Z,98235.50
2022-11-28T15:04:08.005Z,98242.00
2022-11-28T15:06:44.271Z,98234.16
2022-11-28T15:09:21.763Z,98252.47
2022-11-28T15:15:25.274Z,98239.50
2022-11-28T15:18:03.827Z,98242.09
2022-11-28T15:24:14.795Z,98251.97
2022-11-28T15:26:51.774Z,98251.16
2022-11-28T15:29:51.882Z,98247.69
2022-11-28T15:32:21.924Z,98251.22
2022-11-28T15:35:12.486Z,98262.56
2022-11-28T15:38:01.528Z,98250.41
2022-11-28T15:40:49.496Z,98258.31
2022-11-28T15:43:16.855Z,98263.56
2022-11-28T15:46:06.049Z,98255.91
2022-11-28T15:48:40.197Z,98268.22
